Time;durP1;ratioP1;P1;durP2;ratioP2;P2;SDS_P1;SDS_P2;PMS_P1;PMS_P2;Temp;Humidity;BMP_temperature;BMP_pressure;BME280_temperature;BME280_humidity;BME280_pressure;Samples;Min_cycle;Max_cycle;Signal;HPM_P1;HPM_P2
2022/11/04 00:01:42;;;;;;;16.17;8.43;;;11.30;99.90;;;;;;4978161;28;20030;-82
2022/11/04 00:04:08;;;;;;;15.75;8.98;;;11.30;99.90;;;;;;4960379;28;20055;-81
2022/11/04 00:06:35;;;;;;;17.23;8.32;;;11.30;99.90;;;;;;4960490;28;20505;-82
2022/11/04 00:09:01;;;;;;;13.35;9.07;;;11.30;99.90;;;;;;4976638;28;20050;-81
2022/11/04 00:14:12;;;;;;;16.20;9.85;;;11.40;99.90;;;;;;4977623;28;20446;-82
2022/11/04 00:19:23;;;;;;;18.77;10.95;;;11.40;99.90;;;;;;4963120;28;20507;-82
2022/11/04 00:29:56;;;;;;;23.67;16.23;;;11.40;99.90;;;;;;4977291;28;20105;-83
2022/11/04 00:35:07;;;;;;;;;;;11.30;99.90;;;;;;4963384;28;20049;-82
2022/11/04 00:37:36;;;;;;;34.70;22.73;;;11.30;99.90;;;;;;4960106;28;19907;-82
2022/11/04 00:40:02;;;;;;;29.60;21.23;;;11.30;99.90;;;;;;4976526;28;20037;-81
2022/11/04 00:42:28;;;;;;;30.93;22.30;;;11.30;99.90;;;;;;4960673;28;20495;-82
2022/11/04 00:44:54;;;;;;;35.22;21.65;;;11.30;99.90;;;;;;4978413;28;20031;-82
2022/11/04 00:47:19;;;;;;;29.33;19.97;;;11.30;99.90;;;;;;4944336;28;20034;-82
2022/11/04 00:49:45;;;;;;;23.27;16.75;;;11.20;99.90;;;;;;4976382;28;20070;-81
2022/11/04 00:52:11;;;;;;;23.40;14.70;;;11.20;99.90;;;;;;4959951;28;20065;-81
2022/11/04 00:54:36;;;;;;;15.95;11.88;;;11.10;99.90;;;;;;4944061;28;20041;-81
2022/11/04 00:57:02;;;;;;;14.53;9.50;;;11.10;99.90;;;;;;4959907;28;20038;-81
2022/11/04 00:59:27;;;;;;;10.68;7.05;;;11.00;99.90;;;;;;4942952;28;20027;-81
2022/11/04 01:01:54;;;;;;;8.80;5.57;;;10.90;99.90;;;;;;4927856;28;20042;-81
2022/11/04 01:04:20;;;;;;;9.40;5.93;;;10.90;99.90;;;;;;4975222;28;20026;-81
2022/11/04 01:06:46;;;;;;;9.50;4.77;;;10.90;99.90;;;;;;4976758;28;20479;-81
2022/11/04 01:09:12;;;;;;;7.93;4.77;;;10.80;99.90;;;;;;4959434;28;20501;-80
2022/11/04 01:11:38;;;;;;;7.20;3.40;;;10.70;99.90;;;;;;4977000;28;20037;-81
2022/11/04 01:14:04;;;;;;;5.77;3.27;;;10.70;99.90;;;;;;4975220;28;20031;-80
2022/11/04 01:16:30;;;;;;;5.23;2.30;;;10.70;99.90;;;;;;4975527;28;20479;-81
2022/11/04 01:18:56;;;;;;;4.97;2.30;;;10.60;99.90;;;;;;4959054;28;20542;-81
2022/11/04 01:21:21;;;;;;;6.80;2.00;;;10.50;99.90;;;;;;4975304;28;20081;-81
2022/11/04 01:23:47;;;;;;;4.30;2.00;;;10.50;99.90;;;;;;4942599;28;20031;-81
2022/11/04 01:26:16;;;;;;;4.33;1.90;;;10.50;99.90;;;;;;4942982;28;20042;-81
2022/11/04 01:28:42;;;;;;;3.77;1.57;;;10.50;99.90;;;;;;4976183;28;20076;-80
2022/11/04 01:31:13;;;;;;;4.07;1.40;;;10.40;99.90;;;;;;4976270;28;20057;-81
2022/11/04 01:33:39;;;;;;;3.93;1.90;;;10.40;99.90;;;;;;4974933;28;20384;-80
2022/11/04 01:36:07;;;;;;;3.43;1.60;;;10.40;99.90;;;;;;4943253;28;20366;-80
2022/11/04 01:38:33;;;;;;;3.93;1.83;;;10.30;99.90;;;;;;4975483;28;20117;-80
2022/11/04 01:40:59;;;;;;;5.40;2.20;;;10.30;99.90;;;;;;4942695;28;20121;-80
2022/11/04 01:43:45;;;;;;;6.10;2.90;;;10.30;99.90;;;;;;4974598;28;20051;-81
2022/11/04 01:46:31;;;;;;;6.30;3.40;;;10.30;99.90;;;;;;4974762;28;20395;-80
2022/11/04 01:49:03;;;;;;;5.87;3.47;;;10.20;99.90;;;;;;4962441;28;20066;-81
2022/11/04 01:51:33;;;;;;;7.37;3.73;;;10.20;99.90;;;;;;4974842;28;20027;-81
2022/11/04 01:54:00;;;;;;;8.13;4.10;;;10.20;99.90;;;;;;4975733;28;20094;-80
2022/11/04 01:56:27;;;;;;;11.30;5.47;;;10.20;99.90;;;;;;4974703;28;20029;-81
2022/11/04 01:58:57;;;;;;;11.43;7.03;;;10.20;99.90;;;;;;4942385;28;20042;-81
2022/11/04 02:01:22;;;;;;;19.97;11.90;;;10.10;99.90;;;;;;4974559;28;20518;-81
2022/11/04 02:03:53;;;;;;;17.33;11.93;;;10.10;99.90;;;;;;4974453;28;20031;-81
2022/11/04 02:06:20;;;;;;;18.93;13.77;;;10.10;99.90;;;;;;4974305;28;20146;-81
2022/11/04 02:08:47;;;;;;;24.13;16.23;;;10.10;99.90;;;;;;4974596;28;20019;-81
2022/11/04 02:12:48;;;;;;;25.93;18.47;;;10.10;99.90;;;;;;4973152;28;20113;-81
2022/11/04 02:13:59;;;;;;;26.13;18.07;;;10.10;99.90;;;;;;4975382;28;20050;-81
2022/11/04 02:16:39;;;;;;;28.60;20.53;;;10.10;99.90;;;;;;4942453;28;20081;-81
2022/11/04 02:19:26;;;;;;;28.20;20.07;;;10.20;99.90;;;;;;4958126;28;20059;-80
2022/11/04 02:22:06;;;;;;;27.83;19.60;;;10.10;99.90;;;;;;4974580;28;20053;-80
2022/11/04 02:25:02;;;;;;;29.67;21.27;;;10.20;99.90;;;;;;4973916;28;20038;-81
2022/11/04 02:27:49;;;;;;;29.20;20.97;;;10.20;99.90;;;;;;4988201;28;20050;-80
2022/11/04 02:30:20;;;;;;;29.27;21.17;;;10.30;99.90;;;;;;4993425;28;20030;-80
2022/11/04 02:32:59;;;;;;;34.50;22.17;;;10.30;99.90;;;;;;4959456;28;20047;-80
2022/11/04 02:35:27;;;;;;;36.27;22.63;;;10.30;99.90;;;;;;4994657;28;20073;-80
2022/11/04 02:38:13;;;;;;;36.63;22.90;;;10.30;99.90;;;;;;4977218;28;20029;-81
2022/11/04 02:40:47;;;;;;;35.37;24.83;;;10.20;99.90;;;;;;4976157;28;20585;-80
2022/11/04 02:43:31;;;;;;;37.77;25.37;;;10.30;99.90;;;;;;4973407;28;20047;-81
2022/11/04 02:46:14;;;;;;;37.13;26.27;;;10.30;99.90;;;;;;4973833;28;20043;-80
2022/11/04 02:49:01;;;;;;;32.43;23.37;;;10.30;99.90;;;;;;4973789;28;20077;-80
2022/11/04 02:51:38;;;;;;;33.77;24.67;;;10.30;99.90;;;;;;4973309;28;20086;-80
2022/11/04 02:54:11;;;;;;;37.27;26.17;;;10.30;99.90;;;;;;4974231;28;20502;-80
2022/11/04 02:56:43;;;;;;;32.77;24.03;;;10.30;99.90;;;;;;4990031;28;20459;-81
2022/11/04 02:59:21;;;;;;;34.27;25.37;;;10.30;99.90;;;;;;4974429;28;20027;-80
2022/11/04 03:01:51;;;;;;;33.57;24.17;;;10.30;99.90;;;;;;4974121;28;20019;-80
2022/11/04 03:04:29;;;;;;;37.73;26.40;;;10.20;99.90;;;;;;4972910;28;20110;-80
2022/11/04 03:06:57;;;;;;;34.90;25.53;;;10.20;99.90;;;;;;4973442;28;20035;-80
2022/11/04 03:09:26;;;;;;;37.10;25.03;;;10.20;99.90;;;;;;4974420;28;20097;-80
2022/11/04 03:11:57;;;;;;;35.33;26.17;;;10.30;99.90;;;;;;4989719;28;20118;-79
2022/11/04 03:14:37;;;;;;;36.87;26.93;;;10.20;99.90;;;;;;4973368;28;20022;-80
2022/11/04 03:17:08;;;;;;;33.83;23.87;;;10.30;99.90;;;;;;4973003;28;20022;-81
2022/11/04 03:19:36;;;;;;;35.90;26.50;;;10.30;99.90;;;;;;4974790;28;20103;-81
2022/11/04 03:22:13;;;;;;;32.23;23.30;;;10.30;99.90;;;;;;4972912;28;20031;-81
2022/11/04 03:24:40;;;;;;;32.67;24.27;;;10.40;99.90;;;;;;4973122;28;20024;-81
2022/11/04 03:27:33;;;;;;;31.10;21.03;;;10.40;99.90;;;;;;4974483;28;20047;-81
2022/11/04 03:30:10;;;;;;;31.30;22.80;;;10.40;99.90;;;;;;4973136;28;20019;-81
2022/11/04 03:32:50;;;;;;;27.97;20.90;;;10.40;99.90;;;;;;4974026;28;20033;-81
2022/11/04 03:35:17;;;;;;;37.70;22.43;;;10.40;99.90;;;;;;4972681;28;20031;-81
2022/11/04 03:37:46;;;;;;;30.33;21.20;;;10.40;99.90;;;;;;4956956;28;20027;-81
2022/11/04 03:40:12;;;;;;;27.57;18.93;;;10.40;99.90;;;;;;4989411;28;20059;-81
2022/11/04 03:42:43;;;;;;;30.83;19.23;;;10.50;99.90;;;;;;4959237;28;20034;-81
2022/11/04 03:45:11;;;;;;;31.93;21.10;;;10.50;99.90;;;;;;4993795;28;20030;-81
2022/11/04 03:47:37;;;;;;;28.53;20.17;;;10.40;99.90;;;;;;4976169;28;20138;-81
2022/11/04 03:50:29;;;;;;;29.53;20.10;;;10.50;99.90;;;;;;4976435;28;20538;-80
2022/11/04 03:52:56;;;;;;;30.40;19.37;;;10.40;99.90;;;;;;4975750;28;20117;-81
2022/11/04 03:56:01;;;;;;;30.23;18.93;;;10.40;99.90;;;;;;4993403;28;20030;-81
2022/11/04 03:58:47;;;;;;;25.83;18.55;;;10.40;99.90;;;;;;4972120;28;20030;-81
2022/11/04 04:01:46;;;;;;;26.43;16.80;;;10.40;99.90;;;;;;4976122;28;20081;-80
2022/11/04 04:04:52;;;;;;;24.33;17.57;;;10.40;99.90;;;;;;4975691;28;20124;-81
2022/11/04 04:07:43;;;;;;;28.23;16.37;;;10.40;99.90;;;;;;4954007;28;20053;-80
2022/11/04 04:13:06;;;;;;;23.27;15.17;;;10.30;99.90;;;;;;4993412;28;20093;-80
2022/11/04 04:16:02;;;;;;;22.70;14.70;;;10.20;99.90;;;;;;4976139;28;20129;-81
2022/11/04 04:18:41;;;;;;;19.57;12.03;;;10.20;99.90;;;;;;4975665;28;20054;-80
2022/11/04 04:21:10;;;;;;;19.23;12.33;;;10.20;99.90;;;;;;4993292;28;20054;-80
2022/11/04 04:29:10;;;;;;;20.30;11.47;;;10.10;99.90;;;;;;4993548;28;20498;-80
2022/11/04 04:31:51;;;;;;;18.30;9.87;;;10.00;99.90;;;;;;4991944;28;20030;-80
2022/11/04 04:34:28;;;;;;;15.73;10.73;;;10.00;99.90;;;;;;4975572;28;20493;-80
2022/11/04 04:37:02;;;;;;;15.63;9.57;;;9.90;99.90;;;;;;4996795;28;20033;-80
2022/11/04 04:45:07;;;;;;;;;;;9.80;99.90;;;;;;4982233;28;20049;-79
2022/11/04 04:47:53;;;;;;;15.60;9.10;;;9.80;99.90;;;;;;4979449;28;20008;-80
2022/11/04 04:50:20;;;;;;;18.77;10.00;;;9.70;99.90;;;;;;4992705;28;20027;-81
2022/11/04 04:52:49;;;;;;;15.40;9.67;;;9.70;99.90;;;;;;4959642;28;20054;-81
2022/11/04 04:55:15;;;;;;;22.20;10.83;;;9.70;99.90;;;;;;4976952;28;20078;-80
2022/11/04 04:57:41;;;;;;;19.70;10.53;;;9.70;99.90;;;;;;4943782;28;20038;-81
2022/11/04 05:00:10;;;;;;;20.60;11.70;;;9.70;99.90;;;;;;4959647;28;20031;-80
2022/11/04 05:02:36;;;;;;;18.03;9.97;;;9.70;99.90;;;;;;4959235;28;20118;-82
2022/11/04 05:05:02;;;;;;;16.53;11.03;;;9.70;99.90;;;;;;4943806;28;20605;-81
2022/11/04 05:07:28;;;;;;;18.80;10.80;;;9.70;99.90;;;;;;4976456;28;20103;-80
2022/11/04 05:09:54;;;;;;;20.30;10.70;;;9.70;99.90;;;;;;4943404;28;20113;-80
2022/11/04 05:12:20;;;;;;;22.20;11.47;;;9.70;99.90;;;;;;4959201;28;20035;-80
2022/11/04 05:14:45;;;;;;;18.57;10.40;;;9.70;99.90;;;;;;4943269;28;20189;-81
2022/11/04 05:17:11;;;;;;;20.57;11.07;;;9.70;99.90;;;;;;4959610;28;20499;-80
2022/11/04 05:19:37;;;;;;;18.57;10.10;;;9.60;99.90;;;;;;4961863;28;20059;-81
2022/11/04 05:22:03;;;;;;;18.87;10.50;;;9.50;99.90;;;;;;4944613;28;20033;-80
2022/11/04 05:24:29;;;;;;;15.17;9.30;;;9.60;99.90;;;;;;4959390;28;20463;-79
2022/11/04 05:26:55;;;;;;;20.30;9.63;;;9.60;99.90;;;;;;4943970;28;20130;-80
2022/11/04 05:29:21;;;;;;;15.83;9.37;;;9.60;99.90;;;;;;4959844;28;20031;-81
2022/11/04 05:31:46;;;;;;;19.10;8.20;;;9.60;99.90;;;;;;4959589;28;20030;-79
2022/11/04 05:34:13;;;;;;;17.37;8.20;;;9.60;99.90;;;;;;4961186;28;20501;-81
2022/11/04 05:36:39;;;;;;;18.13;7.97;;;9.60;99.90;;;;;;4967474;28;20045;-81
2022/11/04 05:39:05;;;;;;;16.47;7.70;;;9.60;99.90;;;;;;4962193;28;20542;-81
2022/11/04 05:41:32;;;;;;;15.20;7.43;;;9.60;99.90;;;;;;4953128;28;20061;-81
2022/11/04 05:44:00;;;;;;;13.43;7.43;;;9.50;99.90;;;;;;4959120;28;20069;-80
2022/11/04 05:46:27;;;;;;;16.07;7.27;;;9.50;99.90;;;;;;4959991;28;20638;-80
2022/11/04 05:48:53;;;;;;;17.47;7.23;;;9.60;99.90;;;;;;4959326;28;20034;-79
2022/11/04 05:51:22;;;;;;;13.17;7.07;;;9.60;99.90;;;;;;4976357;28;20026;-80
2022/11/04 05:53:48;;;;;;;14.07;6.80;;;9.60;99.90;;;;;;4978091;28;20098;-80
2022/11/04 05:56:14;;;;;;;13.17;6.40;;;9.60;99.90;;;;;;4947425;28;20027;-80
2022/11/04 05:58:40;;;;;;;18.00;7.60;;;9.60;99.90;;;;;;4961844;28;20037;-79
2022/11/04 06:01:26;;;;;;;14.10;6.90;;;9.50;99.90;;;;;;4982556;28;20125;-80
2022/11/04 06:03:53;;;;;;;15.30;6.57;;;9.50;99.90;;;;;;4966227;28;20041;-79
2022/11/04 06:06:19;;;;;;;12.37;6.43;;;9.50;99.90;;;;;;4981800;28;20078;-81
2022/11/04 06:08:45;;;;;;;16.40;7.13;;;9.50;99.90;;;;;;4961308;28;20052;-80
2022/11/04 06:11:11;;;;;;;15.53;6.30;;;9.50;99.90;;;;;;4993604;28;20040;-80
2022/11/04 06:13:36;;;;;;;12.93;5.33;;;9.50;99.90;;;;;;4993182;28;20629;-80
2022/11/04 06:16:02;;;;;;;15.10;5.83;;;9.50;99.90;;;;;;4944338;28;20037;-80
2022/11/04 06:18:28;;;;;;;12.57;5.77;;;9.50;99.90;;;;;;4942017;28;20086;-80
2022/11/04 06:21:30;;;;;;;11.70;5.30;;;9.50;99.90;;;;;;4941954;28;20395;-80
2022/11/04 06:23:57;;;;;;;13.83;5.17;;;9.50;99.90;;;;;;4915608;29;20067;-79
2022/11/04 06:26:24;;;;;;;9.80;4.67;;;9.50;99.90;;;;;;4945818;28;20126;-80
2022/11/04 06:28:50;;;;;;;14.13;5.80;;;9.50;99.90;;;;;;4942072;28;20081;-79
2022/11/04 06:31:17;;;;;;;12.17;4.80;;;9.60;99.90;;;;;;4962021;28;20046;-80
2022/11/04 06:33:43;;;;;;;10.23;4.93;;;9.50;99.90;;;;;;4966927;28;20058;-80
2022/11/04 06:36:11;;;;;;;12.93;4.53;;;9.50;99.90;;;;;;4972170;28;20391;-80
2022/11/04 06:38:37;;;;;;;10.83;4.97;;;9.50;99.90;;;;;;4974761;28;20109;-79
2022/11/04 06:41:05;;;;;;;10.30;4.87;;;9.40;99.90;;;;;;4953209;28;20027;-79
2022/11/04 06:43:31;;;;;;;9.80;4.53;;;9.40;99.90;;;;;;4973204;28;20054;-79
2022/11/04 06:45:58;;;;;;;13.13;3.97;;;9.40;99.90;;;;;;4964628;28;20034;-79
2022/11/04 06:48:25;;;;;;;9.07;4.67;;;9.40;99.90;;;;;;4994216;28;20027;-79
2022/11/04 06:50:51;;;;;;;10.43;4.50;;;9.50;99.90;;;;;;4975552;28;20470;-82
2022/11/04 06:53:17;;;;;;;10.67;3.90;;;9.50;99.90;;;;;;4965497;28;20482;-81
2022/11/04 06:55:44;;;;;;;9.10;4.13;;;9.50;99.90;;;;;;4992439;28;20117;-81
2022/11/04 06:58:09;;;;;;;10.20;4.63;;;9.50;99.90;;;;;;4975664;28;20058;-80
2022/11/04 07:00:35;;;;;;;12.30;4.90;;;9.40;99.90;;;;;;4969864;28;20051;-81
2022/11/04 07:03:01;;;;;;;8.10;4.27;;;9.50;99.90;;;;;;4941260;28;20034;-81
2022/11/04 07:05:26;;;;;;;7.93;4.80;;;9.40;99.90;;;;;;4940430;28;20543;-81
2022/11/04 07:07:52;;;;;;;11.20;4.70;;;9.40;99.90;;;;;;4974412;28;20027;-81
2022/11/04 07:10:18;;;;;;;12.87;4.63;;;9.40;99.90;;;;;;4974321;28;20037;-80
2022/11/04 07:12:43;;;;;;;10.33;3.77;;;9.40;99.90;;;;;;4948318;28;20471;-80
2022/11/04 07:15:09;;;;;;;8.77;4.23;;;9.40;99.90;;;;;;4982013;28;20031;-82
2022/11/04 07:17:35;;;;;;;10.43;4.27;;;9.40;99.90;;;;;;4965996;28;20121;-81
2022/11/04 07:20:01;;;;;;;9.70;4.30;;;9.40;99.90;;;;;;4949129;28;20493;-81
2022/11/04 07:22:26;;;;;;;11.67;4.57;;;9.40;99.90;;;;;;4966914;28;20463;-81
2022/11/04 07:24:52;;;;;;;12.23;4.30;;;9.40;99.90;;;;;;4965220;28;20025;-83
2022/11/04 07:27:18;;;;;;;9.20;3.93;;;9.40;99.90;;;;;;4990296;28;20474;-81
2022/11/04 07:29:43;;;;;;;9.60;4.80;;;9.40;99.90;;;;;;4960051;28;20471;-81
2022/11/04 07:32:09;;;;;;;11.70;3.63;;;9.40;99.90;;;;;;4947253;28;20050;-80
2022/11/04 07:34:35;;;;;;;11.43;4.60;;;9.40;99.90;;;;;;4948903;28;20030;-81
2022/11/04 07:37:00;;;;;;;12.13;4.60;;;9.40;99.90;;;;;;4954577;28;20121;-82
2022/11/04 07:39:26;;;;;;;9.43;4.87;;;9.40;99.90;;;;;;4990412;28;20458;-80
2022/11/04 07:41:51;;;;;;;15.60;5.07;;;9.50;99.90;;;;;;4974711;28;20033;-80
2022/11/04 07:44:17;;;;;;;11.37;4.67;;;9.50;99.90;;;;;;4992403;28;20042;-81
2022/11/04 07:46:43;;;;;;;11.23;5.03;;;9.50;99.90;;;;;;4937078;28;20443;-80
2022/11/04 07:49:08;;;;;;;12.03;5.33;;;9.50;99.90;;;;;;4957818;28;20031;-80
2022/11/04 07:51:34;;;;;;;11.30;5.00;;;9.60;99.90;;;;;;4981314;28;20368;-80
2022/11/04 07:54:00;;;;;;;12.97;4.80;;;9.50;99.90;;;;;;4973689;28;20522;-80
2022/11/04 07:56:26;;;;;;;14.80;5.17;;;9.50;99.90;;;;;;4940919;28;20031;-80
2022/11/04 07:58:52;;;;;;;11.50;4.70;;;9.50;99.90;;;;;;4956491;28;20026;-81
2022/11/04 08:01:22;;;;;;;13.20;5.17;;;9.50;99.90;;;;;;4956732;28;20031;-80
2022/11/04 08:03:48;;;;;;;10.40;4.53;;;9.50;99.90;;;;;;4955946;28;20094;-80
2022/11/04 08:06:16;;;;;;;11.37;5.07;;;9.60;99.90;;;;;;4973907;28;20039;-82
2022/11/04 08:08:42;;;;;;;15.83;5.80;;;9.50;99.90;;;;;;4956242;28;20030;-82
2022/11/04 08:11:12;;;;;;;12.40;4.87;;;9.60;99.90;;;;;;4959438;28;20038;-82
2022/11/04 08:13:38;;;;;;;12.27;4.57;;;9.60;99.90;;;;;;4960380;28;20035;-82
2022/11/04 08:16:08;;;;;;;11.20;5.13;;;9.70;99.90;;;;;;4944505;28;20030;-82
2022/11/04 08:18:34;;;;;;;11.73;5.00;;;9.70;99.90;;;;;;4960172;28;20027;-82
2022/11/04 08:21:01;;;;;;;15.80;5.60;;;9.70;99.90;;;;;;4977898;28;20381;-82
2022/11/04 08:23:27;;;;;;;10.50;4.87;;;9.70;99.90;;;;;;4959801;28;20031;-82
2022/11/04 08:25:53;;;;;;;9.90;4.70;;;9.80;99.90;;;;;;4976787;28;20043;-82
2022/11/04 08:28:18;;;;;;;11.57;4.87;;;9.90;99.90;;;;;;4960062;28;20039;-82
2022/11/04 08:30:54;;;;;;;13.93;4.50;;;9.80;99.90;;;;;;4968826;28;20447;-82
2022/11/04 08:33:20;;;;;;;12.03;4.63;;;9.90;99.90;;;;;;4977948;28;20019;-81
2022/11/04 08:35:46;;;;;;;11.83;4.50;;;9.90;99.90;;;;;;4995195;28;20057;-81
2022/11/04 08:38:12;;;;;;;13.77;5.30;;;9.90;99.90;;;;;;4997171;28;20108;-81
2022/11/04 08:40:37;;;;;;;14.40;5.20;;;9.90;99.90;;;;;;4996717;28;20026;-81
2022/11/04 08:43:03;;;;;;;13.50;4.20;;;9.90;99.90;;;;;;4959725;28;20047;-82
2022/11/04 08:45:29;;;;;;;9.60;3.77;;;10.00;99.90;;;;;;4975564;28;20047;-82
2022/11/04 08:47:54;;;;;;;14.00;5.30;;;10.00;99.90;;;;;;4959757;28;20041;-81
2022/11/04 08:50:26;;;;;;;10.70;4.63;;;10.10;99.90;;;;;;4975625;28;20027;-81
2022/11/04 08:52:54;;;;;;;12.40;4.67;;;10.10;99.90;;;;;;4960273;28;20039;-81
2022/11/04 08:55:20;;;;;;;14.07;4.70;;;10.20;99.90;;;;;;4959360;28;20498;-81
2022/11/04 08:57:45;;;;;;;10.47;4.17;;;10.20;99.90;;;;;;4959740;28;20027;-81
2022/11/04 09:00:12;;;;;;;10.63;4.37;;;10.20;99.90;;;;;;4976026;28;20035;-81
2022/11/04 09:02:39;;;;;;;10.50;4.00;;;10.30;99.90;;;;;;4975289;28;20475;-81
2022/11/04 09:05:05;;;;;;;13.53;4.60;;;10.40;99.90;;;;;;4959658;28;20023;-81
2022/11/04 09:07:31;;;;;;;12.10;4.03;;;10.50;99.90;;;;;;4975393;28;20112;-82
2022/11/04 09:09:57;;;;;;;9.80;3.83;;;10.60;99.90;;;;;;4975079;28;20471;-81
2022/11/04 09:12:22;;;;;;;12.00;4.50;;;10.70;99.90;;;;;;4975404;28;20031;-81
2022/11/04 09:14:48;;;;;;;9.18;3.90;;;10.80;99.90;;;;;;4958960;28;20049;-81
2022/11/04 09:17:14;;;;;;;9.13;4.03;;;11.00;99.90;;;;;;4975388;28;20038;-81
2022/11/04 09:19:39;;;;;;;12.82;3.65;;;11.10;99.90;;;;;;4975559;28;20035;-81
2022/11/04 09:22:05;;;;;;;8.63;3.10;;;11.30;99.90;;;;;;4974834;28;20037;-82
2022/11/04 09:24:31;;;;;;;11.40;3.80;;;11.40;99.90;;;;;;4959280;28;20023;-82
2022/11/04 09:26:56;;;;;;;9.48;3.92;;;11.70;99.90;;;;;;4974919;28;20050;-82
2022/11/04 09:29:22;;;;;;;9.95;2.97;;;11.80;99.90;;;;;;4958872;28;20023;-82
2022/11/04 09:31:49;;;;;;;8.57;3.42;;;11.90;99.90;;;;;;4974901;28;20038;-81
2022/11/04 09:34:16;;;;;;;7.78;2.80;;;12.00;99.90;;;;;;4958974;28;20118;-82
2022/11/04 09:36:42;;;;;;;7.15;2.83;;;12.20;99.90;;;;;;4959578;28;20027;-82
2022/11/04 09:39:08;;;;;;;6.72;2.38;;;12.30;99.90;;;;;;4959102;28;20027;-81
2022/11/04 09:41:34;;;;;;;11.73;4.03;;;12.30;99.90;;;;;;4976198;28;20468;-81
2022/11/04 09:44:40;;;;;;;10.63;3.47;;;12.40;99.90;;;;;;4974875;28;20129;-81
2022/11/04 09:47:09;;;;;;;11.45;3.40;;;12.40;99.90;;;;;;4975377;28;20038;-81
2022/11/04 09:49:37;;;;;;;9.80;3.58;;;12.40;99.90;;;;;;4976136;28;20027;-81
2022/11/04 09:52:14;;;;;;;10.30;3.00;;;12.40;99.90;;;;;;4975109;28;20019;-81
2022/11/04 09:54:47;;;;;;;10.38;3.60;;;12.40;99.90;;;;;;4974760;28;20023;-82
2022/11/04 09:57:16;;;;;;;9.50;3.42;;;12.40;99.90;;;;;;4976887;28;20027;-81
2022/11/04 09:59:42;;;;;;;11.10;3.65;;;12.40;99.90;;;;;;4975166;28;20058;-81
2022/11/04 10:02:52;;;;;;;13.10;4.22;;;12.40;99.90;;;;;;4958695;28;20056;-81
2022/11/04 10:05:33;;;;;;;10.25;4.47;;;12.40;99.90;;;;;;4966522;28;20042;-81
2022/11/04 10:07:59;;;;;;;10.18;4.25;;;12.40;99.90;;;;;;4975598;28;20065;-80
2022/11/04 10:10:36;;;;;;;8.43;4.10;;;12.40;99.90;;;;;;4974361;28;20058;-81
2022/11/04 10:13:25;;;;;;;13.02;4.95;;;12.40;99.90;;;;;;4975228;28;20030;-81
2022/11/04 10:16:01;;;;;;;13.07;4.82;;;12.40;99.90;;;;;;4974149;28;20045;-81
2022/11/04 10:18:39;;;;;;;12.55;4.22;;;12.30;99.90;;;;;;4974443;28;20035;-81
2022/11/04 10:21:40;;;;;;;9.77;3.83;;;12.30;99.90;;;;;;4974243;28;20035;-81
2022/11/04 10:24:15;;;;;;;13.00;3.90;;;12.40;99.90;;;;;;4973943;28;20125;-81
2022/11/04 10:26:43;;;;;;;14.15;4.93;;;12.50;99.90;;;;;;4972739;28;20043;-81
2022/11/04 10:29:34;;;;;;;11.40;4.55;;;12.60;99.90;;;;;;4974584;28;20043;-81
2022/11/04 10:32:06;;;;;;;12.75;5.10;;;12.70;99.90;;;;;;4972074;28;20055;-81
2022/11/04 10:35:00;;;;;;;12.82;4.53;;;12.80;99.90;;;;;;4972151;28;20442;-82
2022/11/04 10:37:26;;;;;;;17.85;5.05;;;13.00;99.90;;;;;;4969448;28;20034;-81
2022/11/04 10:40:01;;;;;;;12.07;5.13;;;13.10;99.90;;;;;;4941752;28;20022;-81
2022/11/04 10:42:27;;;;;;;13.10;4.78;;;13.10;99.90;;;;;;4973748;28;20038;-81
2022/11/04 10:44:52;;;;;;;11.32;4.78;;;13.20;99.90;;;;;;4977146;28;20474;-81
2022/11/04 10:47:41;;;;;;;12.40;6.63;;;13.20;99.90;;;;;;4976757;28;20042;-81
2022/11/04 10:50:36;;;;;;;14.10;6.00;;;13.20;99.90;;;;;;4994594;28;20026;-81
2022/11/04 10:53:21;;;;;;;10.35;5.18;;;13.20;99.90;;;;;;4992543;28;20472;-81
2022/11/04 10:56:05;;;;;;;9.38;5.05;;;13.20;99.90;;;;;;4994285;28;20034;-81
2022/11/04 10:58:34;;;;;;;;;;;13.30;99.90;;;;;;4993422;28;20023;-81
2022/11/04 11:01:27;;;;;;;13.07;5.53;;;13.40;99.90;;;;;;4992319;28;19906;-81
2022/11/04 11:03:53;;;;;;;12.80;6.53;;;13.40;99.90;;;;;;4992397;28;20378;-81
2022/11/04 11:06:35;;;;;;;13.77;6.22;;;13.50;99.90;;;;;;4992818;28;20438;-81
2022/11/04 11:09:29;;;;;;;12.38;6.03;;;13.70;99.90;;;;;;4992695;28;20027;-81
2022/11/04 11:12:05;;;;;;;11.52;5.63;;;13.80;99.80;;;;;;4992655;28;20077;-81
2022/11/04 11:14:36;;;;;;;14.68;6.68;;;13.90;99.50;;;;;;4992930;28;20018;-81
2022/11/04 11:17:14;;;;;;;14.15;5.63;;;13.90;98.90;;;;;;4992669;28;20026;-81
2022/11/04 11:20:06;;;;;;;11.57;6.03;;;14.00;98.60;;;;;;4993974;28;20030;-81
2022/11/04 11:22:41;;;;;;;12.55;6.30;;;14.10;98.60;;;;;;4993795;28;20049;-81
2022/11/04 11:25:24;;;;;;;9.80;5.22;;;14.10;98.70;;;;;;4994114;28;20049;-81
2022/11/04 11:28:01;;;;;;;18.90;6.00;;;14.20;98.20;;;;;;4992790;28;20034;-81
2022/11/04 11:30:53;;;;;;;10.90;5.65;;;14.30;98.10;;;;;;4993972;28;20034;-80
2022/11/04 11:33:26;;;;;;;9.43;4.97;;;14.40;97.90;;;;;;4991123;28;20038;-81
2022/11/04 11:35:54;;;;;;;21.35;6.25;;;14.50;97.80;;;;;;4993962;28;20027;-82
2022/11/04 11:38:26;;;;;;;12.38;6.93;;;14.60;97.50;;;;;;4992446;28;20027;-81
2022/11/04 11:41:03;;;;;;;11.15;5.38;;;14.70;97.20;;;;;;4992250;28;20019;-81
2022/11/04 11:43:31;;;;;;;16.63;7.25;;;14.90;97.20;;;;;;4993799;28;20054;-81
2022/11/04 11:45:59;;;;;;;13.38;6.82;;;14.90;96.60;;;;;;4996429;28;20042;-81
2022/11/04 11:48:41;;;;;;;12.10;6.88;;;15.00;96.30;;;;;;4997802;28;20030;-81
2022/11/04 11:51:12;;;;;;;11.82;6.65;;;15.10;95.90;;;;;;4997576;28;20028;-81
2022/11/04 11:53:44;;;;;;;14.52;6.95;;;15.10;95.40;;;;;;4996317;28;20032;-81
2022/11/04 11:56:50;;;;;;;11.20;6.88;;;15.20;95.20;;;;;;4997901;28;20018;-81
2022/11/04 11:59:45;;;;;;;12.68;7.10;;;15.20;95.00;;;;;;4940397;29;20034;-81
2022/11/04 12:02:32;;;;;;;12.45;6.82;;;15.40;95.20;;;;;;4995677;28;20039;-80
2022/11/04 12:04:59;;;;;;;10.88;6.53;;;15.70;94.90;;;;;;4996094;28;20505;-81
2022/11/04 12:08:08;;;;;;;12.52;7.05;;;15.90;94.80;;;;;;4980082;28;20960;-81
2022/11/04 12:11:02;;;;;;;14.48;7.25;;;16.10;93.80;;;;;;4996082;28;20462;-81
2022/11/04 12:13:44;;;;;;;11.15;6.43;;;16.20;92.90;;;;;;4996104;28;20026;-81
2022/11/04 12:16:13;;;;;;;12.85;6.30;;;16.20;92.30;;;;;;4995848;28;20065;-81
2022/11/04 12:18:48;;;;;;;15.60;7.63;;;16.30;92.30;;;;;;4995870;28;20054;-81
2022/11/04 12:21:33;;;;;;;13.30;6.90;;;16.40;91.70;;;;;;4995690;28;20023;-81
2022/11/04 12:24:05;;;;;;;11.95;6.82;;;16.40;91.20;;;;;;4997007;28;20022;-81
2022/11/04 12:27:00;;;;;;;9.82;6.20;;;16.50;90.70;;;;;;4996870;28;20038;-81
2022/11/04 12:29:39;;;;;;;13.85;7.32;;;16.50;90.00;;;;;;4995468;28;20533;-81
2022/11/04 12:32:24;;;;;;;12.45;7.47;;;16.40;88.90;;;;;;4995609;28;20022;-81
2022/11/04 12:35:21;;;;;;;11.02;7.05;;;16.20;87.90;;;;;;4996491;28;20050;-81
2022/11/04 12:38:10;;;;;;;11.73;7.80;;;16.00;87.30;;;;;;4944552;28;20031;-81
2022/11/04 12:41:08;;;;;;;11.38;6.82;;;15.80;87.50;;;;;;4995241;28;20040;-80
2022/11/04 12:43:42;;;;;;;10.52;6.10;;;15.70;87.60;;;;;;4995237;28;20046;-81
2022/11/04 12:46:07;;;;;;;11.60;6.60;;;15.70;88.00;;;;;;4996666;28;20048;-81
2022/11/04 12:49:07;;;;;;;17.38;7.50;;;15.60;88.40;;;;;;4995485;28;20022;-81
2022/11/04 12:51:45;;;;;;;9.32;6.72;;;15.70;88.70;;;;;;4995006;28;20027;-81
2022/11/04 12:54:38;;;;;;;12.65;7.15;;;15.70;88.90;;;;;;4995050;28;20026;-81
2022/11/04 12:57:12;;;;;;;10.25;6.65;;;15.70;88.90;;;;;;4994350;28;20398;-81
2022/11/04 12:59:46;;;;;;;13.10;7.45;;;15.70;88.70;;;;;;4994718;28;20054;-81
2022/11/04 13:02:32;;;;;;;;;;;15.70;89.10;;;;;;4995335;28;20097;-81
2022/11/04 13:05:22;;;;;;;10.57;6.05;;;15.70;88.40;;;;;;4996305;28;19912;-81
2022/11/04 13:07:56;;;;;;;13.25;8.18;;;15.70;88.40;;;;;;4994642;28;20538;-81
2022/11/04 13:10:32;;;;;;;14.02;7.72;;;15.60;88.20;;;;;;4996208;28;20027;-81
2022/11/04 13:13:01;;;;;;;12.52;8.13;;;15.60;88.00;;;;;;4994888;28;20058;-81
2022/11/04 13:15:32;;;;;;;13.15;7.40;;;15.50;87.80;;;;;;4996905;28;20034;-81
2022/11/04 13:18:05;;;;;;;14.65;7.50;;;15.50;88.10;;;;;;4994963;28;20034;-81
2022/11/04 13:21:08;;;;;;;13.45;8.10;;;15.50;88.00;;;;;;4995906;28;20029;-81
2022/11/04 13:23:50;;;;;;;14.15;7.93;;;15.60;88.30;;;;;;4994854;28;20033;-81
2022/11/04 13:26:16;;;;;;;11.93;7.35;;;15.70;88.50;;;;;;4994615;28;20034;-81
2022/11/04 13:28:54;;;;;;;14.65;8.82;;;15.80;88.50;;;;;;4994556;28;20430;-81
2022/11/04 13:32:03;;;;;;;12.65;7.38;;;15.90;88.20;;;;;;4995783;28;20030;-81
2022/11/04 13:34:53;;;;;;;11.73;7.72;;;16.00;88.00;;;;;;4995119;28;20021;-81
2022/11/04 13:37:32;;;;;;;13.55;8.02;;;16.00;87.70;;;;;;4994451;28;20463;-81
2022/11/04 13:40:21;;;;;;;12.32;8.15;;;16.10;87.20;;;;;;4993989;28;20022;-81